»·PEaware :: DCM204 KSNA-KSGU

DCM204 :: KSNA-KSGU

FLIGHT INFORMATION

Flight Status: Arrived
Operator:
DotCom
More flights by this operator :: More flights under this callsign
Pilot: Bill F. (18685)
Aircraft: Cessna 525C Citation CJ4
(C25C)
More flights by this aircraft type
Origin: KSNA John Wayne-Orange Co
United States
Destination: KSGU St George Mun
United States
More flights between these airports :: More routes between these airports
Route: FINZZ3 BEALE MMM
File this flight plan on PilotEdge
Remarks:
Altitude:
(Current/Filed)
38,000ft
Speed:
(Current/Filed)
276kts
Departed: 18-Oct-21 08:40 PM
Arrived: 18-Oct-21 09:35 PM
Distance/Time
Traveled:
293nm/0:54
Distance/Time
To Go:
Arrived

Flight Plot

Page will automatically refresh every two minutes.

Flight plan parsing failed; only flown route is shown


Map Options




Map Legend


Flown Route
Filed Route
Departure Airport
Arrival Airport
Navaid (VOR, NDB)
Fix

Horizontal Profiles

Position Reports

Time Latitude Longitude Heading Altitude Ground
Speed
18-Oct-21 20:04 33.673761 -117.872272 118 44ft 0kts
18-Oct-21 20:05 33.673761 -117.872272 118 44ft 0kts
18-Oct-21 20:06 33.673761 -117.872272 118 44ft 0kts
18-Oct-21 20:07 33.673761 -117.872272 118 44ft 0kts
18-Oct-21 20:08 33.673761 -117.872272 118 44ft 0kts
18-Oct-21 20:09 33.673761 -117.872272 118 44ft 0kts
18-Oct-21 20:10 33.673761 -117.872272 118 44ft 0kts
18-Oct-21 20:11 33.673761 -117.872272 118 44ft 0kts
18-Oct-21 20:12 33.673761 -117.872272 118 44ft 0kts
18-Oct-21 20:13 33.673761 -117.872272 118 44ft 0kts
18-Oct-21 20:14 33.673761 -117.872272 118 44ft 0kts
18-Oct-21 20:15 33.673761 -117.872272 118 44ft 0kts
18-Oct-21 20:16 33.673761 -117.872272 118 44ft 0kts
18-Oct-21 20:17 33.673761 -117.872272 118 44ft 0kts
18-Oct-21 20:18 33.673761 -117.872272 118 44ft 0kts
18-Oct-21 20:19 33.673761 -117.872272 118 44ft 0kts
18-Oct-21 20:20 33.673761 -117.872272 118 44ft 0kts
18-Oct-21 20:21 33.673761 -117.872272 118 44ft 0kts
18-Oct-21 20:22 33.673761 -117.872272 118 44ft 0kts
18-Oct-21 20:23 33.673761 -117.872272 118 44ft 0kts
18-Oct-21 20:24 33.673761 -117.872272 118 44ft 0kts
18-Oct-21 20:25 33.673761 -117.872272 118 44ft 0kts
18-Oct-21 20:26 33.673761 -117.872272 118 44ft 0kts
18-Oct-21 20:27 33.673761 -117.872272 118 44ft 0kts
18-Oct-21 20:28 33.673761 -117.872272 118 44ft 0kts
18-Oct-21 20:29 33.673761 -117.872272 118 44ft 0kts
18-Oct-21 20:30 33.673761 -117.872272 118 44ft 0kts
18-Oct-21 20:31 33.673761 -117.872272 118 44ft 0kts
18-Oct-21 20:32 33.673761 -117.872272 118 44ft 0kts
18-Oct-21 20:33 33.673761 -117.872272 118 44ft 0kts
18-Oct-21 20:34 33.673761 -117.872272 118 44ft 0kts
18-Oct-21 20:35 33.673761 -117.872272 118 44ft 0kts
18-Oct-21 20:36 33.674405 -117.871150 28 45ft 14kts
18-Oct-21 20:37 33.679337 -117.868081 24 44ft 17kts
18-Oct-21 20:38 33.681905 -117.866117 88 43ft 1kts
18-Oct-21 20:39 33.672748 -117.870942 211 245ft 151kts
18-Oct-21 20:40 33.615228 -117.886682 190 4880ft 254kts
18-Oct-21 20:41 33.550593 -117.920942 230 10303ft 260kts
18-Oct-21 20:42 33.497231 -117.988390 249 13112ft 300kts
18-Oct-21 20:44 33.534725 -118.073111 314 13141ft 334kts
18-Oct-21 20:45 33.612711 -118.115019 14 14591ft 334kts
18-Oct-21 20:46 33.694508 -118.068875 16 15823ft 325kts
18-Oct-21 20:47 33.775934 -118.020756 18 16633ft 328kts
18-Oct-21 20:48 33.857896 -117.973201 17 17323ft 333kts
18-Oct-21 20:49 33.935084 -117.914968 28 20025ft 331kts
18-Oct-21 20:50 34.011615 -117.848996 32 23838ft 355kts
18-Oct-21 20:51 34.092203 -117.774641 38 26245ft 381kts
18-Oct-21 20:52 34.164452 -117.667094 46 27326ft 420kts
18-Oct-21 20:53 34.237849 -117.557618 46 29222ft 420kts
18-Oct-21 20:54 34.310623 -117.448682 45 31345ft 416kts
18-Oct-21 20:55 34.383290 -117.340310 44 33322ft 414kts
18-Oct-21 20:56 34.454478 -117.234027 45 35263ft 411kts
18-Oct-21 20:57 34.525638 -117.126410 46 37156ft 408kts
18-Oct-21 20:58 34.599614 -117.017961 46 37740ft 436kts
18-Oct-21 20:59 34.679327 -116.901619 44 37724ft 461kts
18-Oct-21 21:00 34.763118 -116.779483 45 37716ft 476kts
18-Oct-21 21:01 34.847842 -116.654292 46 37711ft 484kts
18-Oct-21 21:02 34.937097 -116.534314 43 37701ft 471kts
18-Oct-21 21:03 35.023930 -116.417950 42 37695ft 457kts
18-Oct-21 21:04 35.108596 -116.304651 41 37664ft 446kts
18-Oct-21 21:05 35.191043 -116.193360 42 37676ft 438kts
18-Oct-21 21:06 35.271982 -116.083467 41 37668ft 432kts
18-Oct-21 21:07 35.352322 -115.974922 40 37671ft 430kts
18-Oct-21 21:08 35.432178 -115.865948 42 37658ft 430kts
18-Oct-21 21:09 35.511899 -115.757009 40 37637ft 428kts
18-Oct-21 21:10 35.591414 -115.648347 42 37644ft 428kts
18-Oct-21 21:11 35.671124 -115.538445 41 37625ft 441kts
18-Oct-21 21:11 35.741299 -115.442134 41 37597ft 465kts
18-Oct-21 21:13 35.843430 -115.300177 41 37596ft 482kts
18-Oct-21 21:14 35.933225 -115.175955 42 37576ft 490kts
18-Oct-21 21:15 36.024022 -115.048646 42 37568ft 495kts
18-Oct-21 21:15 36.100253 -114.942140 41 37543ft 498kts
18-Oct-21 21:16 36.193167 -114.815268 34 37533ft 493kts
18-Oct-21 21:17 36.302684 -114.715175 30 37553ft 492kts
18-Oct-21 21:19 36.424413 -114.601397 28 37305ft 442kts
18-Oct-21 21:19 36.508171 -114.523181 27 34181ft 462kts
18-Oct-21 21:20 36.612078 -114.425955 26 29881ft 470kts
18-Oct-21 21:21 36.715881 -114.328541 26 25467ft 462kts
18-Oct-21 21:22 36.795322 -114.207745 60 22180ft 460kts
18-Oct-21 21:23 36.843450 -114.067482 62 19174ft 421kts
18-Oct-21 21:24 36.888389 -113.937747 63 16180ft 394kts
18-Oct-21 21:25 36.930659 -113.816305 63 13256ft 373kts
18-Oct-21 21:26 36.970322 -113.698067 69 10568ft 363kts
18-Oct-21 21:27 36.999280 -113.583289 69 8627ft 291kts
18-Oct-21 21:28 37.024115 -113.496858 68 7880ft 274kts
18-Oct-21 21:29 37.065391 -113.422109 38 6887ft 252kts
18-Oct-21 21:30 37.122742 -113.395275 336 6366ft 198kts
18-Oct-21 21:31 37.136349 -113.452987 235 5647ft 206kts
18-Oct-21 21:32 37.092319 -113.481662 202 4435ft 166kts
18-Oct-21 21:33 37.054530 -113.500704 203 3087ft 126kts
18-Oct-21 21:34 37.032974 -113.512153 203 2853ft 35kts
18-Oct-21 21:35 37.031297 -113.510841 40 2851ft 12kts
18-Oct-21 21:36 37.032774 -113.509477 201 2855ft 11kts
18-Oct-21 21:37 37.031022 -113.509622 96 2851ft 0kts
18-Oct-21 21:38 37.031022 -113.509622 96 2851ft 0kts
18-Oct-21 21:39 37.031022 -113.509622 96 2851ft 0kts
18-Oct-21 21:40 37.031022 -113.509622 96 2851ft 0kts

Navigation Log

Ident Type
Flight plan parsing failed, navigation log unavailable